sensor_id;sensor_type;location;lat;lon;timestamp;P1;durP1;ratioP1;P2;durP2;ratioP2
68993;SDS011;56054;50.968;5.816;2023-03-14T06:45:13;1.87;;;1.10;;
68993;SDS011;56054;50.968;5.816;2023-03-14T06:48:27;1.00;;;0.70;;
68993;SDS011;56054;50.968;5.816;2023-03-14T06:51:35;0.67;;;0.50;;
68993;SDS011;56054;50.968;5.816;2023-03-14T06:54:45;1.37;;;0.77;;
68993;SDS011;56054;50.968;5.816;2023-03-14T06:57:56;0.50;;;0.50;;
68993;SDS011;56054;50.968;5.816;2023-03-14T07:01:04;1.20;;;0.70;;
68993;SDS011;56054;50.968;5.816;2023-03-14T07:04:16;1.40;;;0.80;;
68993;SDS011;56054;50.968;5.816;2023-03-14T07:07:24;1.67;;;0.70;;
68993;SDS011;56054;50.968;5.816;2023-03-14T07:10:36;1.43;;;0.60;;
68993;SDS011;56054;50.968;5.816;2023-03-14T07:13:51;4.13;;;0.80;;
68993;SDS011;56054;50.968;5.816;2023-03-14T07:16:59;1.33;;;0.70;;
68993;SDS011;56054;50.968;5.816;2023-03-14T07:20:06;1.93;;;0.77;;
68993;SDS011;56054;50.968;5.816;2023-03-14T07:23:14;2.63;;;1.10;;
68993;SDS011;56054;50.968;5.816;2023-03-14T07:26:23;4.83;;;1.00;;
68993;SDS011;56054;50.968;5.816;2023-03-14T07:29:57;1.53;;;0.80;;
68993;SDS011;56054;50.968;5.816;2023-03-14T07:33:05;6.67;;;1.00;;
68993;SDS011;56054;50.968;5.816;2023-03-14T07:36:12;1.23;;;0.73;;
68993;SDS011;56054;50.968;5.816;2023-03-14T07:39:21;1.30;;;0.67;;
68993;SDS011;56054;50.968;5.816;2023-03-14T07:42:36;1.37;;;0.53;;
68993;SDS011;56054;50.968;5.816;2023-03-14T07:45:59;2.03;;;0.70;;
68993;SDS011;56054;50.968;5.816;2023-03-14T07:49:06;1.87;;;0.70;;
68993;SDS011;56054;50.968;5.816;2023-03-14T07:52:14;1.63;;;1.00;;
68993;SDS011;56054;50.968;5.816;2023-03-14T07:55:21;5.00;;;1.37;;
68993;SDS011;56054;50.968;5.816;2023-03-14T07:58:28;1.90;;;1.20;;
68993;SDS011;56054;50.968;5.816;2023-03-14T08:01:35;2.37;;;1.03;;
68993;SDS011;56054;50.968;5.816;2023-03-14T08:04:42;1.27;;;0.80;;
68993;SDS011;56054;50.968;5.816;2023-03-14T08:07:49;1.83;;;0.80;;
68993;SDS011;56054;50.968;5.816;2023-03-14T08:10:56;2.13;;;1.30;;
68993;SDS011;56054;50.968;5.816;2023-03-14T08:14:10;1.67;;;1.07;;
68993;SDS011;56054;50.968;5.816;2023-03-14T08:17:17;4.90;;;1.00;;
68993;SDS011;56054;50.968;5.816;2023-03-14T08:20:25;1.27;;;0.87;;
68993;SDS011;56054;50.968;5.816;2023-03-14T08:23:45;1.23;;;0.60;;
68993;SDS011;56054;50.968;5.816;2023-03-14T08:26:52;1.13;;;0.60;;
68993;SDS011;56054;50.968;5.816;2023-03-14T08:29:59;0.30;;;0.30;;
68993;SDS011;56054;50.968;5.816;2023-03-14T08:33:32;1.37;;;0.37;;
68993;SDS011;56054;50.968;5.816;2023-03-14T08:36:39;3.80;;;0.50;;
68993;SDS011;56054;50.968;5.816;2023-03-14T08:40:11;1.50;;;0.30;;
68993;SDS011;56054;50.968;5.816;2023-03-14T08:43:19;0.43;;;0.20;;
68993;SDS011;56054;50.968;5.816;2023-03-14T08:46:26;0.90;;;0.50;;
68993;SDS011;56054;50.968;5.816;2023-03-14T08:49:33;1.13;;;0.30;;
68993;SDS011;56054;50.968;5.816;2023-03-14T08:52:41;1.17;;;0.40;;
68993;SDS011;56054;50.968;5.816;2023-03-14T08:55:54;1.60;;;0.30;;
68993;SDS011;56054;50.968;5.816;2023-03-14T08:59:01;0.70;;;0.30;;
68993;SDS011;56054;50.968;5.816;2023-03-14T09:02:16;0.30;;;0.30;;
68993;SDS011;56054;50.968;5.816;2023-03-14T09:05:24;0.63;;;0.47;;
68993;SDS011;56054;50.968;5.816;2023-03-14T09:08:36;0.77;;;0.40;;
68993;SDS011;56054;50.968;5.816;2023-03-14T09:11:44;0.97;;;0.30;;
68993;SDS011;56054;50.968;5.816;2023-03-14T09:14:51;0.33;;;0.30;;
68993;SDS011;56054;50.968;5.816;2023-03-14T09:17:58;0.67;;;0.40;;
68993;SDS011;56054;50.968;5.816;2023-03-14T09:21:05;0.30;;;0.30;;
68993;SDS011;56054;50.968;5.816;2023-03-14T09:24:12;1.70;;;0.40;;
68993;SDS011;56054;50.968;5.816;2023-03-14T09:27:19;3.80;;;0.47;;
68993;SDS011;56054;50.968;5.816;2023-03-14T09:30:26;2.80;;;0.30;;
68993;SDS011;56054;50.968;5.816;2023-03-14T09:33:33;0.57;;;0.40;;
68993;SDS011;56054;50.968;5.816;2023-03-14T09:36:41;3.30;;;0.40;;
68993;SDS011;56054;50.968;5.816;2023-03-14T09:39:48;2.47;;;0.50;;
68993;SDS011;56054;50.968;5.816;2023-03-14T09:42:55;2.30;;;0.40;;
68993;SDS011;56054;50.968;5.816;2023-03-14T09:46:03;1.17;;;0.40;;
68993;SDS011;56054;50.968;5.816;2023-03-14T09:49:19;2.20;;;0.40;;
68993;SDS011;56054;50.968;5.816;2023-03-14T09:52:35;1.90;;;0.47;;
68993;SDS011;56054;50.968;5.816;2023-03-14T09:55:45;2.33;;;0.80;;
68993;SDS011;56054;50.968;5.816;2023-03-14T09:58:59;0.80;;;0.40;;
68993;SDS011;56054;50.968;5.816;2023-03-14T10:05:41;1.37;;;0.70;;
68993;SDS011;56054;50.968;5.816;2023-03-14T10:08:49;1.97;;;0.97;;
68993;SDS011;56054;50.968;5.816;2023-03-14T10:11:56;2.93;;;0.70;;
68993;SDS011;56054;50.968;5.816;2023-03-14T10:15:10;0.87;;;0.70;;
68993;SDS011;56054;50.968;5.816;2023-03-14T10:18:19;3.50;;;0.77;;
68993;SDS011;56054;50.968;5.816;2023-03-14T10:21:29;1.90;;;0.70;;
68993;SDS011;56054;50.968;5.816;2023-03-14T10:24:37;2.90;;;0.70;;
68993;SDS011;56054;50.968;5.816;2023-03-14T10:27:51;2.27;;;0.70;;
68993;SDS011;56054;50.968;5.816;2023-03-14T10:30:58;2.20;;;0.90;;
68993;SDS011;56054;50.968;5.816;2023-03-14T10:34:09;0.63;;;0.63;;
68993;SDS011;56054;50.968;5.816;2023-03-14T10:37:32;2.90;;;0.90;;
68993;SDS011;56054;50.968;5.816;2023-03-14T10:40:40;4.40;;;0.90;;
68993;SDS011;56054;50.968;5.816;2023-03-14T10:43:58;5.40;;;0.67;;
68993;SDS011;56054;50.968;5.816;2023-03-14T10:47:12;2.50;;;0.63;;
68993;SDS011;56054;50.968;5.816;2023-03-14T10:50:30;2.90;;;0.70;;
68993;SDS011;56054;50.968;5.816;2023-03-14T10:53:48;4.43;;;0.77;;
68993;SDS011;56054;50.968;5.816;2023-03-14T10:56:57;1.03;;;0.80;;
68993;SDS011;56054;50.968;5.816;2023-03-14T11:00:20;3.40;;;0.80;;
68993;SDS011;56054;50.968;5.816;2023-03-14T11:03:30;3.10;;;0.83;;
68993;SDS011;56054;50.968;5.816;2023-03-14T11:10:35;2.60;;;0.73;;
68993;SDS011;56054;50.968;5.816;2023-03-14T11:17:30;1.50;;;0.60;;
68993;SDS011;56054;50.968;5.816;2023-03-14T11:21:04;1.57;;;0.70;;
68993;SDS011;56054;50.968;5.816;2023-03-14T11:27:35;2.40;;;0.90;;
68993;SDS011;56054;50.968;5.816;2023-03-14T11:30:52;1.60;;;0.67;;
68993;SDS011;56054;50.968;5.816;2023-03-14T11:40:31;5.57;;;1.00;;
68993;SDS011;56054;50.968;5.816;2023-03-14T11:43:40;2.20;;;0.77;;
68993;SDS011;56054;50.968;5.816;2023-03-14T11:46:59;4.00;;;1.20;;
68993;SDS011;56054;50.968;5.816;2023-03-14T11:50:17;4.07;;;1.60;;
68993;SDS011;56054;50.968;5.816;2023-03-14T11:53:40;4.37;;;1.10;;
68993;SDS011;56054;50.968;5.816;2023-03-14T11:56:53;5.07;;;0.80;;
68993;SDS011;56054;50.968;5.816;2023-03-14T12:00:32;5.23;;;1.00;;
68993;SDS011;56054;50.968;5.816;2023-03-14T12:03:41;8.47;;;1.07;;
68993;SDS011;56054;50.968;5.816;2023-03-14T12:06:53;4.13;;;0.93;;
68993;SDS011;56054;50.968;5.816;2023-03-14T12:10:03;3.20;;;0.90;;
68993;SDS011;56054;50.968;5.816;2023-03-14T12:13:11;5.00;;;1.00;;
68993;SDS011;56054;50.968;5.816;2023-03-14T12:19:40;2.00;;;0.57;;
68993;SDS011;56054;50.968;5.816;2023-03-14T12:22:52;4.90;;;1.27;;
68993;SDS011;56054;50.968;5.816;2023-03-14T12:26:07;3.53;;;0.60;;
68993;SDS011;56054;50.968;5.816;2023-03-14T12:29:15;5.80;;;1.20;;
68993;SDS011;56054;50.968;5.816;2023-03-14T12:32:23;3.47;;;0.57;;
68993;SDS011;56054;50.968;5.816;2023-03-14T12:35:41;4.33;;;0.60;;
68993;SDS011;56054;50.968;5.816;2023-03-14T12:38:52;8.13;;;0.93;;
68993;SDS011;56054;50.968;5.816;2023-03-14T12:42:13;11.37;;;1.60;;
68993;SDS011;56054;50.968;5.816;2023-03-14T12:45:28;5.73;;;1.10;;
68993;SDS011;56054;50.968;5.816;2023-03-14T12:48:39;2.87;;;1.00;;
68993;SDS011;56054;50.968;5.816;2023-03-14T12:51:47;5.67;;;1.40;;
68993;SDS011;56054;50.968;5.816;2023-03-14T12:59:04;5.30;;;1.10;;
68993;SDS011;56054;50.968;5.816;2023-03-14T13:02:25;2.13;;;1.00;;
68993;SDS011;56054;50.968;5.816;2023-03-14T13:05:59;8.33;;;1.20;;
68993;SDS011;56054;50.968;5.816;2023-03-14T13:12:47;2.73;;;0.73;;
68993;SDS011;56054;50.968;5.816;2023-03-14T13:15:57;8.17;;;1.30;;
68993;SDS011;56054;50.968;5.816;2023-03-14T13:19:31;4.87;;;1.40;;
68993;SDS011;56054;50.968;5.816;2023-03-14T13:22:40;11.90;;;1.90;;
68993;SDS011;56054;50.968;5.816;2023-03-14T13:25:56;10.20;;;1.87;;
68993;SDS011;56054;50.968;5.816;2023-03-14T13:29:19;7.87;;;1.00;;
68993;SDS011;56054;50.968;5.816;2023-03-14T13:32:29;14.50;;;1.83;;
68993;SDS011;56054;50.968;5.816;2023-03-14T13:35:40;4.33;;;1.10;;
68993;SDS011;56054;50.968;5.816;2023-03-14T13:38:55;15.63;;;1.60;;
68993;SDS011;56054;50.968;5.816;2023-03-14T13:42:10;11.40;;;1.67;;
68993;SDS011;56054;50.968;5.816;2023-03-14T13:45:21;12.07;;;1.70;;
68993;SDS011;56054;50.968;5.816;2023-03-14T13:48:43;7.80;;;1.27;;
68993;SDS011;56054;50.968;5.816;2023-03-14T13:51:56;11.97;;;1.87;;
68993;SDS011;56054;50.968;5.816;2023-03-14T13:55:04;14.70;;;1.80;;
68993;SDS011;56054;50.968;5.816;2023-03-14T13:58:23;12.53;;;1.43;;
68993;SDS011;56054;50.968;5.816;2023-03-14T14:01:43;18.93;;;3.20;;
68993;SDS011;56054;50.968;5.816;2023-03-14T14:04:51;11.03;;;1.77;;
68993;SDS011;56054;50.968;5.816;2023-03-14T14:08:12;16.20;;;2.07;;
68993;SDS011;56054;50.968;5.816;2023-03-14T14:11:28;15.50;;;1.93;;
68993;SDS011;56054;50.968;5.816;2023-03-14T14:14:41;15.07;;;1.73;;
68993;SDS011;56054;50.968;5.816;2023-03-14T14:18:05;11.97;;;1.67;;
68993;SDS011;56054;50.968;5.816;2023-03-14T14:21:16;12.53;;;1.90;;
68993;SDS011;56054;50.968;5.816;2023-03-14T14:24:24;14.33;;;3.43;;
68993;SDS011;56054;50.968;5.816;2023-03-14T14:27:53;14.73;;;2.13;;
68993;SDS011;56054;50.968;5.816;2023-03-14T14:31:04;12.03;;;1.93;;
68993;SDS011;56054;50.968;5.816;2023-03-14T14:43:11;11.43;;;1.60;;
68993;SDS011;56054;50.968;5.816;2023-03-14T14:46:23;10.43;;;1.63;;
68993;SDS011;56054;50.968;5.816;2023-03-14T14:49:37;12.00;;;2.17;;
68993;SDS011;56054;50.968;5.816;2023-03-14T14:52:44;14.70;;;1.67;;
68993;SDS011;56054;50.968;5.816;2023-03-14T14:55:53;9.80;;;1.40;;
68993;SDS011;56054;50.968;5.816;2023-03-14T14:59:04;12.63;;;2.00;;
68993;SDS011;56054;50.968;5.816;2023-03-14T15:02:24;6.33;;;1.40;;
68993;SDS011;56054;50.968;5.816;2023-03-14T15:05:42;12.00;;;1.93;;
68993;SDS011;56054;50.968;5.816;2023-03-14T15:08:49;16.47;;;1.97;;
68993;SDS011;56054;50.968;5.816;2023-03-14T15:11:56;7.13;;;1.50;;
68993;SDS011;56054;50.968;5.816;2023-03-14T15:15:06;10.73;;;1.73;;
68993;SDS011;56054;50.968;5.816;2023-03-14T15:18:17;15.80;;;1.70;;
68993;SDS011;56054;50.968;5.816;2023-03-14T15:21:26;11.50;;;1.70;;
68993;SDS011;56054;50.968;5.816;2023-03-14T15:24:34;8.10;;;1.00;;
68993;SDS011;56054;50.968;5.816;2023-03-14T15:27:41;5.03;;;1.17;;
68993;SDS011;56054;50.968;5.816;2023-03-14T15:30:52;10.60;;;1.23;;
68993;SDS011;56054;50.968;5.816;2023-03-14T15:34:00;8.77;;;2.40;;
68993;SDS011;56054;50.968;5.816;2023-03-14T15:37:14;5.23;;;1.57;;
68993;SDS011;56054;50.968;5.816;2023-03-14T15:40:22;6.87;;;1.10;;
68993;SDS011;56054;50.968;5.816;2023-03-14T15:43:38;5.40;;;1.23;;
68993;SDS011;56054;50.968;5.816;2023-03-14T15:46:45;5.47;;;0.97;;
68993;SDS011;56054;50.968;5.816;2023-03-14T15:49:52;8.40;;;0.93;;
68993;SDS011;56054;50.968;5.816;2023-03-14T15:52:59;4.70;;;0.80;;
68993;SDS011;56054;50.968;5.816;2023-03-14T15:56:07;6.27;;;1.10;;
68993;SDS011;56054;50.968;5.816;2023-03-14T15:59:17;4.67;;;1.13;;
68993;SDS011;56054;50.968;5.816;2023-03-14T16:02:24;3.90;;;0.70;;
68993;SDS011;56054;50.968;5.816;2023-03-14T16:05:31;3.20;;;0.87;;
68993;SDS011;56054;50.968;5.816;2023-03-14T16:08:38;8.93;;;1.47;;
68993;SDS011;56054;50.968;5.816;2023-03-14T16:11:45;8.20;;;1.30;;
68993;SDS011;56054;50.968;5.816;2023-03-14T16:14:52;3.70;;;0.57;;
68993;SDS011;56054;50.968;5.816;2023-03-14T16:17:59;3.50;;;0.80;;
68993;SDS011;56054;50.968;5.816;2023-03-14T16:21:07;3.93;;;0.50;;
68993;SDS011;56054;50.968;5.816;2023-03-14T16:24:17;3.10;;;0.90;;
68993;SDS011;56054;50.968;5.816;2023-03-14T16:27:25;6.50;;;1.20;;
68993;SDS011;56054;50.968;5.816;2023-03-14T16:30:32;1.67;;;0.70;;
68993;SDS011;56054;50.968;5.816;2023-03-14T16:33:39;10.67;;;1.43;;
68993;SDS011;56054;50.968;5.816;2023-03-14T16:36:46;10.30;;;1.63;;
68993;SDS011;56054;50.968;5.816;2023-03-14T16:39:53;8.20;;;1.47;;
68993;SDS011;56054;50.968;5.816;2023-03-14T16:43:08;5.47;;;1.53;;
68993;SDS011;56054;50.968;5.816;2023-03-14T16:46:15;8.60;;;1.20;;
68993;SDS011;56054;50.968;5.816;2023-03-14T16:49:23;6.87;;;0.83;;
68993;SDS011;56054;50.968;5.816;2023-03-14T16:52:30;7.57;;;1.63;;
68993;SDS011;56054;50.968;5.816;2023-03-14T16:55:41;5.50;;;1.40;;
68993;SDS011;56054;50.968;5.816;2023-03-14T16:58:49;8.23;;;1.33;;
68993;SDS011;56054;50.968;5.816;2023-03-14T17:01:56;9.83;;;1.30;;
68993;SDS011;56054;50.968;5.816;2023-03-14T17:05:03;6.30;;;1.43;;
68993;SDS011;56054;50.968;5.816;2023-03-14T17:08:10;7.47;;;1.03;;
68993;SDS011;56054;50.968;5.816;2023-03-14T17:11:17;5.80;;;1.57;;
68993;SDS011;56054;50.968;5.816;2023-03-14T17:14:24;11.93;;;1.70;;
68993;SDS011;56054;50.968;5.816;2023-03-14T17:17:31;7.07;;;1.40;;
68993;SDS011;56054;50.968;5.816;2023-03-14T17:20:38;9.00;;;2.10;;
68993;SDS011;56054;50.968;5.816;2023-03-14T17:23:45;11.30;;;1.30;;
68993;SDS011;56054;50.968;5.816;2023-03-14T17:26:52;7.97;;;1.73;;
68993;SDS011;56054;50.968;5.816;2023-03-14T17:29:59;12.33;;;1.50;;
68993;SDS011;56054;50.968;5.816;2023-03-14T17:33:06;6.90;;;1.00;;
68993;SDS011;56054;50.968;5.816;2023-03-14T17:36:13;10.50;;;1.30;;
68993;SDS011;56054;50.968;5.816;2023-03-14T17:39:20;6.00;;;1.07;;
68993;SDS011;56054;50.968;5.816;2023-03-14T17:42:27;9.60;;;1.80;;
68993;SDS011;56054;50.968;5.816;2023-03-14T17:45:34;16.23;;;1.77;;
68993;SDS011;56054;50.968;5.816;2023-03-14T17:48:45;7.77;;;0.80;;
68993;SDS011;56054;50.968;5.816;2023-03-14T17:51:53;13.77;;;1.60;;
68993;SDS011;56054;50.968;5.816;2023-03-14T17:55:01;7.10;;;1.50;;
68993;SDS011;56054;50.968;5.816;2023-03-14T17:58:19;15.47;;;1.50;;
68993;SDS011;56054;50.968;5.816;2023-03-14T18:01:26;12.53;;;1.83;;
68993;SDS011;56054;50.968;5.816;2023-03-14T18:04:37;11.67;;;1.87;;
68993;SDS011;56054;50.968;5.816;2023-03-14T18:07:44;15.90;;;1.97;;
68993;SDS011;56054;50.968;5.816;2023-03-14T18:10:54;3.57;;;1.37;;
68993;SDS011;56054;50.968;5.816;2023-03-14T18:14:01;14.27;;;1.50;;
68993;SDS011;56054;50.968;5.816;2023-03-14T18:17:09;8.87;;;1.63;;
68993;SDS011;56054;50.968;5.816;2023-03-14T18:20:32;11.20;;;2.63;;
68993;SDS011;56054;50.968;5.816;2023-03-14T18:23:38;7.20;;;1.63;;
68993;SDS011;56054;50.968;5.816;2023-03-14T18:26:47;9.23;;;2.23;;
68993;SDS011;56054;50.968;5.816;2023-03-14T18:29:54;8.60;;;2.03;;
68993;SDS011;56054;50.968;5.816;2023-03-14T18:33:01;9.87;;;1.20;;
68993;SDS011;56054;50.968;5.816;2023-03-14T18:36:09;15.33;;;1.40;;
68993;SDS011;56054;50.968;5.816;2023-03-14T18:39:17;9.70;;;1.47;;
68993;SDS011;56054;50.968;5.816;2023-03-14T18:42:24;9.27;;;1.50;;
68993;SDS011;56054;50.968;5.816;2023-03-14T18:45:31;6.70;;;1.17;;
68993;SDS011;56054;50.968;5.816;2023-03-14T18:48:38;9.17;;;1.57;;
68993;SDS011;56054;50.968;5.816;2023-03-14T18:51:45;6.97;;;1.20;;
68993;SDS011;56054;50.968;5.816;2023-03-14T18:54:53;10.07;;;2.00;;
68993;SDS011;56054;50.968;5.816;2023-03-14T18:58:00;14.57;;;1.60;;
68993;SDS011;56054;50.968;5.816;2023-03-14T19:01:07;5.20;;;1.57;;
68993;SDS011;56054;50.968;5.816;2023-03-14T19:04:22;10.93;;;1.20;;
68993;SDS011;56054;50.968;5.816;2023-03-14T19:07:29;10.67;;;1.50;;
68993;SDS011;56054;50.968;5.816;2023-03-14T19:15:18;13.17;;;1.13;;
68993;SDS011;56054;50.968;5.816;2023-03-14T19:18:25;13.23;;;1.47;;
68993;SDS011;56054;50.968;5.816;2023-03-14T19:21:33;11.40;;;1.50;;
68993;SDS011;56054;50.968;5.816;2023-03-14T19:24:41;8.53;;;1.47;;
68993;SDS011;56054;50.968;5.816;2023-03-14T19:27:48;8.17;;;2.30;;
68993;SDS011;56054;50.968;5.816;2023-03-14T19:30:55;9.23;;;1.60;;
68993;SDS011;56054;50.968;5.816;2023-03-14T19:34:02;9.23;;;1.47;;
68993;SDS011;56054;50.968;5.816;2023-03-14T19:37:09;11.93;;;1.37;;
68993;SDS011;56054;50.968;5.816;2023-03-14T19:40:18;11.27;;;1.73;;
68993;SDS011;56054;50.968;5.816;2023-03-14T19:43:32;6.87;;;1.57;;
68993;SDS011;56054;50.968;5.816;2023-03-14T19:46:39;15.17;;;1.83;;
68993;SDS011;56054;50.968;5.816;2023-03-14T19:49:46;8.73;;;1.50;;
68993;SDS011;56054;50.968;5.816;2023-03-14T19:52:57;5.67;;;1.27;;
68993;SDS011;56054;50.968;5.816;2023-03-14T19:56:04;9.37;;;1.60;;
68993;SDS011;56054;50.968;5.816;2023-03-14T19:59:12;13.00;;;2.63;;
68993;SDS011;56054;50.968;5.816;2023-03-14T20:02:21;15.17;;;3.17;;
68993;SDS011;56054;50.968;5.816;2023-03-14T20:05:32;9.53;;;2.30;;
68993;SDS011;56054;50.968;5.816;2023-03-14T20:08:39;15.23;;;2.90;;
68993;SDS011;56054;50.968;5.816;2023-03-14T20:11:48;12.27;;;1.97;;
68993;SDS011;56054;50.968;5.816;2023-03-14T20:14:56;14.87;;;2.17;;
68993;SDS011;56054;50.968;5.816;2023-03-14T20:18:07;13.47;;;2.37;;
68993;SDS011;56054;50.968;5.816;2023-03-14T20:21:14;8.30;;;1.87;;
68993;SDS011;56054;50.968;5.816;2023-03-14T20:24:27;12.43;;;1.77;;
68993;SDS011;56054;50.968;5.816;2023-03-14T20:27:36;10.90;;;1.40;;
68993;SDS011;56054;50.968;5.816;2023-03-14T20:30:44;9.67;;;1.80;;
68993;SDS011;56054;50.968;5.816;2023-03-14T20:33:51;9.40;;;2.07;;
68993;SDS011;56054;50.968;5.816;2023-03-14T20:37:08;4.40;;;1.43;;
68993;SDS011;56054;50.968;5.816;2023-03-14T20:40:14;8.90;;;1.60;;
68993;SDS011;56054;50.968;5.816;2023-03-14T20:43:22;14.57;;;2.13;;
68993;SDS011;56054;50.968;5.816;2023-03-14T20:46:38;6.00;;;2.30;;
68993;SDS011;56054;50.968;5.816;2023-03-14T20:49:52;9.90;;;2.60;;
68993;SDS011;56054;50.968;5.816;2023-03-14T20:52:59;11.97;;;1.80;;
68993;SDS011;56054;50.968;5.816;2023-03-14T20:56:32;6.27;;;1.70;;
68993;SDS011;56054;50.968;5.816;2023-03-14T20:59:39;7.60;;;1.93;;
68993;SDS011;56054;50.968;5.816;2023-03-14T21:02:46;10.93;;;2.33;;
68993;SDS011;56054;50.968;5.816;2023-03-14T21:05:53;4.87;;;1.47;;
68993;SDS011;56054;50.968;5.816;2023-03-14T21:09:00;11.43;;;2.37;;
68993;SDS011;56054;50.968;5.816;2023-03-14T21:12:07;10.70;;;2.60;;
68993;SDS011;56054;50.968;5.816;2023-03-14T21:15:14;11.00;;;2.20;;
68993;SDS011;56054;50.968;5.816;2023-03-14T21:18:21;13.97;;;2.57;;
68993;SDS011;56054;50.968;5.816;2023-03-14T21:21:28;5.87;;;2.17;;
68993;SDS011;56054;50.968;5.816;2023-03-14T21:24:37;9.37;;;2.50;;
68993;SDS011;56054;50.968;5.816;2023-03-14T21:27:44;5.90;;;2.10;;
68993;SDS011;56054;50.968;5.816;2023-03-14T21:30:51;9.57;;;2.10;;
68993;SDS011;56054;50.968;5.816;2023-03-14T21:33:59;14.80;;;2.43;;
68993;SDS011;56054;50.968;5.816;2023-03-14T21:37:06;8.03;;;2.53;;
68993;SDS011;56054;50.968;5.816;2023-03-14T21:40:13;11.30;;;2.43;;
68993;SDS011;56054;50.968;5.816;2023-03-14T21:43:22;10.93;;;2.53;;
68993;SDS011;56054;50.968;5.816;2023-03-14T21:46:32;8.73;;;2.70;;
68993;SDS011;56054;50.968;5.816;2023-03-14T21:49:39;6.93;;;2.20;;
68993;SDS011;56054;50.968;5.816;2023-03-14T21:52:48;8.43;;;2.57;;
68993;SDS011;56054;50.968;5.816;2023-03-14T21:55:56;6.97;;;1.87;;
68993;SDS011;56054;50.968;5.816;2023-03-14T21:59:08;7.40;;;2.67;;
68993;SDS011;56054;50.968;5.816;2023-03-14T22:02:16;11.87;;;2.90;;
68993;SDS011;56054;50.968;5.816;2023-03-14T22:05:26;8.77;;;2.53;;
68993;SDS011;56054;50.968;5.816;2023-03-14T22:08:33;8.30;;;2.60;;
68993;SDS011;56054;50.968;5.816;2023-03-14T22:11:40;13.23;;;3.00;;
68993;SDS011;56054;50.968;5.816;2023-03-14T22:14:48;12.20;;;3.97;;
68993;SDS011;56054;50.968;5.816;2023-03-14T22:18:19;16.00;;;4.70;;
68993;SDS011;56054;50.968;5.816;2023-03-14T22:21:29;13.70;;;3.40;;
68993;SDS011;56054;50.968;5.816;2023-03-14T22:24:36;11.93;;;4.13;;
68993;SDS011;56054;50.968;5.816;2023-03-14T22:28:42;11.53;;;2.90;;
68993;SDS011;56054;50.968;5.816;2023-03-14T22:31:51;10.17;;;3.67;;
68993;SDS011;56054;50.968;5.816;2023-03-14T22:34:58;8.30;;;3.10;;
68993;SDS011;56054;50.968;5.816;2023-03-14T22:38:05;12.30;;;3.00;;
68993;SDS011;56054;50.968;5.816;2023-03-14T22:41:12;11.90;;;3.80;;
68993;SDS011;56054;50.968;5.816;2023-03-14T22:44:19;9.33;;;3.67;;
68993;SDS011;56054;50.968;5.816;2023-03-14T22:47:33;13.03;;;3.57;;
68993;SDS011;56054;50.968;5.816;2023-03-14T22:50:40;21.13;;;3.70;;
68993;SDS011;56054;50.968;5.816;2023-03-14T22:53:53;11.77;;;3.87;;
68993;SDS011;56054;50.968;5.816;2023-03-14T22:57:00;12.87;;;3.20;;
68993;SDS011;56054;50.968;5.816;2023-03-14T23:00:08;10.63;;;3.20;;
68993;SDS011;56054;50.968;5.816;2023-03-14T23:03:15;16.87;;;3.87;;
68993;SDS011;56054;50.968;5.816;2023-03-14T23:06:22;13.60;;;3.70;;
68993;SDS011;56054;50.968;5.816;2023-03-14T23:13:00;13.60;;;3.57;;
68993;SDS011;56054;50.968;5.816;2023-03-14T23:16:08;15.27;;;4.43;;
68993;SDS011;56054;50.968;5.816;2023-03-14T23:19:18;15.53;;;5.27;;
68993;SDS011;56054;50.968;5.816;2023-03-14T23:22:25;12.93;;;4.33;;
68993;SDS011;56054;50.968;5.816;2023-03-14T23:25:33;10.03;;;4.43;;
68993;SDS011;56054;50.968;5.816;2023-03-14T23:28:41;15.53;;;4.70;;
68993;SDS011;56054;50.968;5.816;2023-03-14T23:31:48;19.60;;;4.80;;
68993;SDS011;56054;50.968;5.816;2023-03-14T23:35:00;18.63;;;5.00;;
68993;SDS011;56054;50.968;5.816;2023-03-14T23:38:33;14.63;;;4.60;;
68993;SDS011;56054;50.968;5.816;2023-03-14T23:41:40;16.90;;;4.57;;
68993;SDS011;56054;50.968;5.816;2023-03-14T23:44:53;13.57;;;4.27;;
68993;SDS011;56054;50.968;5.816;2023-03-14T23:48:01;19.80;;;4.90;;
68993;SDS011;56054;50.968;5.816;2023-03-14T23:51:09;8.70;;;4.43;;
68993;SDS011;56054;50.968;5.816;2023-03-14T23:54:17;12.30;;;4.60;;
68993;SDS011;56054;50.968;5.816;2023-03-14T23:57:26;8.80;;;3.83;;
